Time;durP1;ratioP1;P1;durP2;ratioP2;P2;SDS_P1;SDS_P2;PMS_P1;PMS_P2;Temp;Humidity;BMP_temperature;BMP_pressure;BME280_temperature;BME280_humidity;BME280_pressure;Samples;Min_cycle;Max_cycle;Signal;HPM_P1;HPM_P2
2023/05/25 00:01:43;;;;;;;18.15;9.23;;;10.60;99.90;;;;;;5037352;28;20121;-43
2023/05/25 00:04:15;;;;;;;15.75;9.18;;;10.50;99.90;;;;;;5024885;28;20072;-44
2023/05/25 00:06:46;;;;;;;17.13;9.02;;;10.50;99.90;;;;;;5026061;28;20067;-43
2023/05/25 00:09:13;;;;;;;16.90;8.90;;;10.40;99.90;;;;;;5034621;28;20037;-43
2023/05/25 00:11:41;;;;;;;16.35;8.60;;;10.40;99.90;;;;;;5023191;28;20072;-43
2023/05/25 00:14:08;;;;;;;14.27;9.27;;;10.40;99.90;;;;;;5030887;28;20053;-41
2023/05/25 00:16:36;;;;;;;16.17;8.77;;;10.30;99.90;;;;;;5030913;28;20489;-42
2023/05/25 00:19:05;;;;;;;19.65;9.73;;;10.30;99.90;;;;;;5030746;28;20049;-42
2023/05/25 00:21:33;;;;;;;14.30;9.18;;;10.20;99.90;;;;;;5030287;28;20065;-42
2023/05/25 00:24:00;;;;;;;17.13;9.60;;;10.20;99.90;;;;;;5029210;28;20146;-42
2023/05/25 00:26:28;;;;;;;16.13;9.13;;;10.10;99.90;;;;;;5030025;28;20115;-42
2023/05/25 00:28:55;;;;;;;19.42;9.43;;;10.10;99.90;;;;;;5030292;28;20076;-42
2023/05/25 00:31:22;;;;;;;13.20;8.68;;;10.00;99.90;;;;;;5012842;28;20084;-42
2023/05/25 00:33:50;;;;;;;16.25;9.23;;;10.00;99.90;;;;;;5014802;28;20034;-42
2023/05/25 00:36:17;;;;;;;20.42;9.15;;;9.90;99.90;;;;;;5030447;28;20042;-44
2023/05/25 00:38:45;;;;;;;13.23;8.82;;;9.90;99.90;;;;;;5030516;28;20041;-43
2023/05/25 00:41:14;;;;;;;19.50;8.52;;;9.80;99.90;;;;;;5013032;28;20046;-43
2023/05/25 00:43:45;;;;;;;15.35;8.30;;;9.80;99.90;;;;;;5028026;28;20101;-43
2023/05/25 00:46:14;;;;;;;13.15;9.05;;;9.90;99.90;;;;;;5012606;28;20061;-45
2023/05/25 00:48:42;;;;;;;13.82;8.15;;;9.80;99.90;;;;;;5029964;28;20045;-45
2023/05/25 00:51:12;;;;;;;16.35;9.07;;;9.80;99.90;;;;;;5040326;28;20072;-43
2023/05/25 00:53:41;;;;;;;12.50;8.13;;;9.80;99.90;;;;;;5012664;28;20037;-43
2023/05/25 00:56:19;;;;;;;11.02;8.65;;;9.90;99.90;;;;;;5041032;28;20057;-44
2023/05/25 00:58:52;;;;;;;15.77;8.63;;;9.80;99.90;;;;;;5042438;28;20040;-44
2023/05/25 01:01:21;;;;;;;16.30;9.07;;;9.80;99.90;;;;;;5039542;28;20088;-43
2023/05/25 01:03:53;;;;;;;14.57;8.80;;;9.70;99.90;;;;;;5023301;28;20049;-44
2023/05/25 01:06:22;;;;;;;16.35;9.27;;;9.60;99.90;;;;;;5041046;28;20061;-40
2023/05/25 01:08:59;;;;;;;11.73;8.25;;;9.60;99.90;;;;;;5046290;28;20138;-43
2023/05/25 01:11:31;;;;;;;19.90;9.25;;;9.50;99.90;;;;;;5040205;28;20045;-44
2023/05/25 01:13:59;;;;;;;19.13;9.18;;;9.50;99.90;;;;;;5046282;28;20045;-44
2023/05/25 01:16:28;;;;;;;19.38;10.23;;;9.50;99.90;;;;;;5054511;28;20033;-44
2023/05/25 01:18:55;;;;;;;16.88;9.80;;;9.40;99.90;;;;;;5053130;28;20059;-45
2023/05/25 01:21:27;;;;;;;17.20;9.82;;;9.40;99.90;;;;;;5043320;28;20133;-43
2023/05/25 01:24:21;;;;;;;17.15;9.43;;;9.40;99.90;;;;;;5026223;28;20226;-42
2023/05/25 01:27:04;;;;;;;18.70;9.07;;;9.40;99.90;;;;;;5026242;28;20087;-44
2023/05/25 01:29:33;;;;;;;17.42;9.07;;;9.40;99.90;;;;;;5022551;28;20100;-44
2023/05/25 01:32:03;;;;;;;16.65;8.95;;;9.30;99.90;;;;;;5024165;28;20114;-44
2023/05/25 01:34:33;;;;;;;15.02;9.25;;;9.30;99.90;;;;;;5032801;28;20049;-44
2023/05/25 01:37:01;;;;;;;18.38;9.90;;;9.20;99.90;;;;;;5044348;28;20120;-43
2023/05/25 01:39:28;;;;;;;14.20;8.98;;;9.20;99.90;;;;;;5047524;28;20052;-43
2023/05/25 01:41:55;;;;;;;13.43;9.23;;;9.20;99.90;;;;;;5038913;28;20507;-43
2023/05/25 01:44:23;;;;;;;18.13;9.57;;;9.20;99.90;;;;;;5035795;28;20052;-41
2023/05/25 01:47:16;;;;;;;14.32;9.23;;;9.10;99.90;;;;;;5028268;28;20041;-43
2023/05/25 01:49:50;;;;;;;11.52;8.93;;;9.10;99.90;;;;;;5016238;28;20095;-42
2023/05/25 01:52:34;;;;;;;16.27;9.48;;;9.10;99.90;;;;;;5016040;28;20058;-41
2023/05/25 01:55:21;;;;;;;14.18;8.98;;;9.10;99.90;;;;;;5032329;28;20045;-41
2023/05/25 01:57:51;;;;;;;15.27;9.13;;;9.10;99.90;;;;;;5050700;28;20051;-42
2023/05/25 02:00:20;;;;;;;15.48;9.55;;;9.10;99.90;;;;;;5047562;28;20092;-41
2023/05/25 02:02:49;;;;;;;16.92;9.18;;;9.00;99.90;;;;;;5057631;28;20067;-40
2023/05/25 02:05:19;;;;;;;12.93;8.70;;;8.90;99.90;;;;;;5025190;28;20107;-40
2023/05/25 02:07:46;;;;;;;14.70;9.18;;;8.90;99.90;;;;;;5030147;28;20140;-41
2023/05/25 02:10:14;;;;;;;17.25;9.45;;;8.90;99.90;;;;;;5053731;28;20516;-40
2023/05/25 02:12:41;;;;;;;14.20;9.73;;;8.80;99.90;;;;;;5029920;28;20037;-40
2023/05/25 02:15:10;;;;;;;15.30;9.77;;;8.80;99.90;;;;;;5035285;28;20087;-38
2023/05/25 02:17:37;;;;;;;19.00;9.70;;;8.70;99.90;;;;;;5035736;28;20371;-40
2023/05/25 02:20:07;;;;;;;15.73;9.75;;;8.70;99.90;;;;;;5059333;28;20041;-41
2023/05/25 02:22:36;;;;;;;14.23;9.27;;;8.70;99.90;;;;;;5056260;28;20048;-40
2023/05/25 02:25:04;;;;;;;18.13;9.48;;;8.60;99.90;;;;;;5061540;28;20052;-41
2023/05/25 02:27:32;;;;;;;15.93;9.13;;;8.60;99.90;;;;;;5055554;28;20053;-39
2023/05/25 02:29:59;;;;;;;14.35;8.88;;;8.50;99.90;;;;;;5041555;28;20048;-40
2023/05/25 02:32:30;;;;;;;12.90;9.70;;;8.50;99.90;;;;;;5054827;28;20159;-41
2023/05/25 02:34:57;;;;;;;18.05;9.70;;;8.40;99.90;;;;;;5022760;28;20049;-39
2023/05/25 02:37:25;;;;;;;16.25;8.98;;;8.40;99.90;;;;;;5011820;28;20546;-37
2023/05/25 02:39:52;;;;;;;11.27;8.80;;;8.50;99.90;;;;;;5046047;28;20075;-40
2023/05/25 02:42:21;;;;;;;17.15;9.05;;;8.50;99.90;;;;;;5025867;28;20053;-38
2023/05/25 02:44:48;;;;;;;15.57;9.77;;;8.60;99.90;;;;;;5053297;28;20040;-44
2023/05/25 02:47:17;;;;;;;14.20;9.00;;;8.60;99.90;;;;;;5059272;28;20037;-40
2023/05/25 02:49:45;;;;;;;15.25;9.57;;;8.50;99.90;;;;;;5033839;28;20045;-39
2023/05/25 02:52:12;;;;;;;11.68;8.80;;;8.40;99.90;;;;;;5027693;28;20055;-40
2023/05/25 02:54:40;;;;;;;14.52;9.05;;;8.40;99.90;;;;;;5021871;28;20413;-42
2023/05/25 02:57:11;;;;;;;16.43;9.60;;;8.30;99.90;;;;;;5032027;28;20578;-41
2023/05/25 02:59:38;;;;;;;14.48;9.55;;;8.30;99.90;;;;;;5036156;28;20295;-40
2023/05/25 03:02:06;;;;;;;18.02;10.05;;;8.30;99.90;;;;;;5029999;28;20044;-42
2023/05/25 03:04:36;;;;;;;15.05;9.27;;;8.20;99.90;;;;;;5026142;28;20470;-41
2023/05/25 03:07:04;;;;;;;17.88;9.80;;;8.30;99.90;;;;;;5008440;28;20053;-40
2023/05/25 03:09:31;;;;;;;21.55;9.18;;;8.30;99.90;;;;;;5046567;28;20477;-39
2023/05/25 03:12:01;;;;;;;17.50;9.30;;;8.30;99.90;;;;;;5032658;28;20106;-38
2023/05/25 03:14:28;;;;;;;15.60;9.38;;;8.30;99.90;;;;;;5022788;28;20045;-42
2023/05/25 03:17:02;;;;;;;18.30;9.52;;;8.30;99.90;;;;;;5035706;28;20044;-40
2023/05/25 03:19:32;;;;;;;18.17;9.50;;;8.30;99.90;;;;;;5035122;28;20064;-40
2023/05/25 03:22:00;;;;;;;16.38;10.10;;;8.30;99.90;;;;;;5048658;28;20540;-40
2023/05/25 03:24:28;;;;;;;13.82;9.43;;;8.20;99.90;;;;;;5014744;28;20037;-40
2023/05/25 03:26:59;;;;;;;18.80;10.20;;;8.30;99.90;;;;;;5028960;28;20059;-40
2023/05/25 03:29:27;;;;;;;15.00;10.18;;;8.30;99.90;;;;;;5024683;28;20047;-42
2023/05/25 03:31:54;;;;;;;15.95;9.68;;;8.30;99.90;;;;;;5026539;28;20044;-40
2023/05/25 03:34:25;;;;;;;17.75;9.68;;;8.40;99.90;;;;;;5033409;28;20060;-40
2023/05/25 03:36:53;;;;;;;22.17;9.82;;;8.40;99.90;;;;;;5043359;28;20061;-40
2023/05/25 03:39:21;;;;;;;14.60;9.20;;;8.30;99.90;;;;;;5024541;28;20535;-41
2023/05/25 03:41:50;;;;;;;22.70;10.57;;;8.20;99.90;;;;;;5035151;28;20041;-40
2023/05/25 03:44:18;;;;;;;13.40;9.63;;;8.30;99.90;;;;;;5039423;28;20107;-40
2023/05/25 03:46:45;;;;;;;15.90;9.30;;;8.30;99.90;;;;;;5035979;28;20043;-41
2023/05/25 03:49:13;;;;;;;15.02;9.20;;;8.30;99.90;;;;;;5038091;28;20377;-42
2023/05/25 03:51:41;;;;;;;20.38;10.15;;;8.30;99.90;;;;;;5032451;28;20052;-41
2023/05/25 03:54:09;;;;;;;18.80;10.20;;;8.30;99.90;;;;;;5028687;28;20049;-40
2023/05/25 03:56:36;;;;;;;15.57;9.50;;;8.30;99.90;;;;;;5016777;28;20051;-41
2023/05/25 03:59:05;;;;;;;15.75;9.07;;;8.30;99.90;;;;;;5049238;28;20048;-38
2023/05/25 04:01:32;;;;;;;15.02;9.05;;;8.40;99.90;;;;;;5026095;28;20052;-37
2023/05/25 04:04:01;;;;;;;17.42;10.05;;;8.40;99.90;;;;;;5029891;28;20133;-42
2023/05/25 04:06:29;;;;;;;18.15;9.23;;;8.50;99.90;;;;;;5017469;28;20053;-40
2023/05/25 04:09:00;;;;;;;16.50;9.00;;;8.50;99.90;;;;;;5037273;28;20112;-41
2023/05/25 04:11:27;;;;;;;16.08;9.27;;;8.60;99.90;;;;;;5048705;28;20513;-42
2023/05/25 04:13:55;;;;;;;18.40;9.82;;;8.60;99.90;;;;;;5045219;28;20033;-42
2023/05/25 04:16:25;;;;;;;16.85;10.80;;;8.70;99.90;;;;;;5038890;28;20057;-40
2023/05/25 04:18:54;;;;;;;19.98;9.60;;;8.70;99.90;;;;;;5034616;28;20033;-39
2023/05/25 04:21:22;;;;;;;17.98;10.88;;;8.80;99.90;;;;;;5038371;28;20049;-41
2023/05/25 04:23:50;;;;;;;14.50;10.27;;;8.90;99.90;;;;;;5020063;28;20063;-42
2023/05/25 04:26:18;;;;;;;23.08;10.63;;;9.00;99.90;;;;;;5016521;28;20055;-39
2023/05/25 04:28:48;;;;;;;20.88;11.48;;;9.00;99.90;;;;;;5019726;28;20065;-41
2023/05/25 04:31:25;;;;;;;18.92;10.68;;;9.00;99.90;;;;;;5022093;28;20052;-41
2023/05/25 04:34:28;;;;;;;17.58;9.85;;;9.20;99.90;;;;;;5019641;28;20041;-45
2023/05/25 04:37:11;;;;;;;17.98;9.30;;;9.30;99.90;;;;;;5032816;28;20533;-42
2023/05/25 04:39:39;;;;;;;19.52;9.73;;;9.40;99.90;;;;;;5037947;28;20075;-41
2023/05/25 04:42:06;;;;;;;17.27;9.82;;;9.40;99.90;;;;;;5042118;28;20498;-44
2023/05/25 04:44:34;;;;;;;18.92;10.25;;;9.50;99.90;;;;;;5022584;28;20545;-44
2023/05/25 04:47:04;;;;;;;16.25;9.38;;;9.50;99.90;;;;;;5032614;28;20049;-44
2023/05/25 04:49:33;;;;;;;18.58;9.90;;;9.50;99.90;;;;;;5054318;28;20071;-44
2023/05/25 04:52:00;;;;;;;15.70;9.45;;;9.60;99.90;;;;;;5048740;28;20873;-42
2023/05/25 04:54:29;;;;;;;17.60;9.68;;;9.70;99.90;;;;;;5023605;28;20049;-42
2023/05/25 04:57:00;;;;;;;18.10;9.93;;;9.60;99.90;;;;;;5044408;28;20116;-42
2023/05/25 04:59:30;;;;;;;24.05;9.85;;;9.60;99.90;;;;;;5016542;28;20529;-42
2023/05/25 05:01:58;;;;;;;22.77;9.48;;;9.60;99.90;;;;;;5008029;28;20095;-41
2023/05/25 05:04:25;;;;;;;15.60;9.55;;;9.70;99.90;;;;;;5010378;28;20465;-45
2023/05/25 05:06:54;;;;;;;19.45;9.60;;;9.80;99.90;;;;;;5005855;28;20049;-43
2023/05/25 05:09:25;;;;;;;20.27;9.57;;;9.90;99.90;;;;;;5014698;28;20041;-43
2023/05/25 05:11:55;;;;;;;21.15;9.90;;;10.00;99.90;;;;;;5015573;28;20052;-43
2023/05/25 05:14:22;;;;;;;16.13;9.77;;;10.00;99.90;;;;;;5017166;28;20061;-42
2023/05/25 05:16:50;;;;;;;15.35;8.82;;;10.20;99.90;;;;;;5023528;28;20056;-42
2023/05/25 05:19:18;;;;;;;15.52;9.43;;;10.30;99.90;;;;;;5016183;28;20052;-40
2023/05/25 05:21:45;;;;;;;15.32;9.07;;;10.40;99.90;;;;;;5016587;28;20049;-41
2023/05/25 05:24:14;;;;;;;23.92;9.98;;;10.50;99.90;;;;;;5016275;28;20099;-44
2023/05/25 05:26:42;;;;;;;14.07;10.00;;;10.60;99.90;;;;;;5009804;28;20037;-43
2023/05/25 05:29:36;;;;;;;16.75;9.48;;;10.70;99.90;;;;;;5021349;28;20049;-44
2023/05/25 05:32:04;;;;;;;18.25;9.38;;;10.90;99.90;;;;;;5017657;28;21330;-42
2023/05/25 05:34:32;;;;;;;23.88;12.27;;;11.00;99.90;;;;;;5012533;28;20045;-44
2023/05/25 05:37:04;;;;;;;17.02;9.70;;;11.10;99.90;;;;;;5024335;28;20509;-43
2023/05/25 05:39:31;;;;;;;18.25;11.02;;;11.20;99.90;;;;;;5013984;28;20041;-44
2023/05/25 05:41:58;;;;;;;17.77;11.02;;;11.30;99.90;;;;;;5006197;28;20046;-41
2023/05/25 05:44:26;;;;;;;16.92;10.65;;;11.50;99.90;;;;;;5016390;28;20037;-44
2023/05/25 05:46:59;;;;;;;20.90;10.32;;;11.60;99.90;;;;;;5019348;28;20045;-44
2023/05/25 05:49:29;;;;;;;17.05;9.68;;;11.70;99.90;;;;;;5010694;28;20050;-43
2023/05/25 05:51:57;;;;;;;20.67;9.70;;;11.80;99.90;;;;;;5009864;28;20035;-43
2023/05/25 05:54:26;;;;;;;15.20;8.32;;;12.00;99.90;;;;;;5031101;28;20049;-43
2023/05/25 05:56:56;;;;;;;13.20;8.70;;;12.20;99.90;;;;;;5018614;28;20041;-40
2023/05/25 05:59:23;;;;;;;12.57;8.50;;;12.40;99.90;;;;;;5018183;28;20115;-42
2023/05/25 06:01:51;;;;;;;15.43;9.10;;;12.60;99.90;;;;;;5017888;28;20506;-42
2023/05/25 06:04:19;;;;;;;19.83;9.50;;;12.70;99.90;;;;;;5015675;28;20046;-43
2023/05/25 06:06:46;;;;;;;14.95;9.13;;;12.80;99.90;;;;;;5034016;28;20053;-43
2023/05/25 06:09:15;;;;;;;17.08;9.38;;;13.00;99.90;;;;;;5021087;28;20103;-42
2023/05/25 06:11:42;;;;;;;16.83;9.43;;;13.10;99.90;;;;;;5017343;28;20399;-45
2023/05/25 06:14:12;;;;;;;15.73;8.70;;;13.10;99.90;;;;;;5015410;28;20505;-41
2023/05/25 06:16:42;;;;;;;18.88;11.80;;;13.20;99.90;;;;;;5011880;28;20046;-40
2023/05/25 06:19:10;;;;;;;14.27;8.60;;;13.30;99.90;;;;;;5034880;28;20057;-43
2023/05/25 06:21:37;;;;;;;17.10;8.90;;;13.30;99.90;;;;;;5028491;28;20347;-42
2023/05/25 06:24:05;;;;;;;15.23;8.55;;;13.40;99.90;;;;;;5039817;28;20045;-44
2023/05/25 06:26:33;;;;;;;19.13;8.95;;;13.40;99.90;;;;;;5018225;28;20041;-43
2023/05/25 06:29:00;;;;;;;17.98;9.20;;;13.50;99.90;;;;;;5024432;28;20048;-40
2023/05/25 06:31:28;;;;;;;17.83;8.80;;;13.50;99.90;;;;;;5016974;28;20038;-42
2023/05/25 06:33:55;;;;;;;14.00;8.55;;;13.50;99.90;;;;;;5016869;28;20042;-44
2023/05/25 06:36:22;;;;;;;17.02;8.65;;;13.60;99.90;;;;;;5018776;28;20049;-41
2023/05/25 06:38:50;;;;;;;14.60;8.45;;;13.70;99.90;;;;;;5013231;28;20041;-42
2023/05/25 06:41:18;;;;;;;18.02;8.30;;;13.90;99.90;;;;;;5031626;28;20125;-41
2023/05/25 06:43:46;;;;;;;15.10;7.60;;;14.10;99.90;;;;;;5030657;28;20048;-42
2023/05/25 06:46:30;;;;;;;12.57;7.90;;;14.20;99.90;;;;;;5027041;28;20058;-41
2023/05/25 06:49:00;;;;;;;20.90;8.88;;;14.30;99.90;;;;;;5016042;28;20167;-43
2023/05/25 06:51:27;;;;;;;13.73;8.15;;;14.30;99.90;;;;;;5033328;28;20051;-43
2023/05/25 06:53:55;;;;;;;15.48;8.80;;;14.40;99.90;;;;;;5038905;28;20045;-43
2023/05/25 06:56:23;;;;;;;14.65;8.10;;;14.50;99.90;;;;;;5036469;28;20128;-43
2023/05/25 06:58:50;;;;;;;12.98;7.88;;;14.60;99.90;;;;;;5043589;28;20060;-43
2023/05/25 07:01:17;;;;;;;23.40;13.68;;;14.70;99.90;;;;;;5040177;28;20549;-41
2023/05/25 07:03:45;;;;;;;18.23;8.38;;;14.80;99.90;;;;;;5035602;28;20082;-43
2023/05/25 07:06:13;;;;;;;19.00;8.82;;;14.90;99.90;;;;;;5030172;28;20053;-43
2023/05/25 07:08:41;;;;;;;17.77;8.18;;;14.90;99.90;;;;;;5025986;28;20061;-44
2023/05/25 07:11:11;;;;;;;15.20;8.57;;;15.00;99.90;;;;;;5025304;28;20034;-43
2023/05/25 07:13:39;;;;;;;17.35;8.05;;;15.10;99.90;;;;;;5030790;28;20087;-46
2023/05/25 07:16:06;;;;;;;21.05;8.43;;;15.20;99.90;;;;;;5027792;28;20037;-44
2023/05/25 07:18:33;;;;;;;14.40;8.55;;;15.30;99.90;;;;;;5028064;28;20049;-42
2023/05/25 07:21:02;;;;;;;20.23;9.07;;;15.40;99.90;;;;;;5022851;28;20304;-44
2023/05/25 07:23:29;;;;;;;15.43;8.05;;;15.50;99.90;;;;;;5027385;28;20524;-44
2023/05/25 07:25:56;;;;;;;15.75;8.43;;;15.50;99.90;;;;;;5039458;28;20038;-41
2023/05/25 07:28:24;;;;;;;16.52;9.00;;;15.70;99.90;;;;;;5042217;28;20073;-40
2023/05/25 07:30:51;;;;;;;15.98;8.13;;;15.70;99.90;;;;;;5041690;28;20085;-41
2023/05/25 07:33:18;;;;;;;15.98;8.88;;;15.90;99.90;;;;;;5039878;28;20137;-41
2023/05/25 07:35:46;;;;;;;15.60;7.50;;;15.90;99.90;;;;;;5030480;28;20096;-44
2023/05/25 07:38:13;;;;;;;13.68;8.48;;;16.00;99.90;;;;;;5033555;28;20049;-42
2023/05/25 07:40:41;;;;;;;14.57;7.75;;;16.10;99.90;;;;;;5022117;28;20061;-43
2023/05/25 07:43:08;;;;;;;16.55;8.75;;;16.10;99.90;;;;;;5047286;28;20396;-42
2023/05/25 07:45:35;;;;;;;30.50;19.30;;;16.20;99.90;;;;;;5041717;28;20115;-47
2023/05/25 07:48:05;;;;;;;17.38;9.80;;;16.30;99.90;;;;;;5041026;28;20583;-44
2023/05/25 07:50:33;;;;;;;14.68;8.48;;;16.40;99.90;;;;;;5047430;28;20386;-44
2023/05/25 07:53:00;;;;;;;15.93;8.40;;;16.50;99.90;;;;;;5039089;28;20042;-46
2023/05/25 07:55:28;;;;;;;14.57;7.80;;;16.60;99.90;;;;;;5037625;28;20071;-44
2023/05/25 07:57:55;;;;;;;19.83;8.82;;;16.70;99.90;;;;;;5054819;28;20055;-42
2023/05/25 08:00:22;;;;;;;12.25;8.23;;;16.70;99.90;;;;;;5045480;28;20064;-38
2023/05/25 08:02:50;;;;;;;14.10;8.30;;;16.70;99.90;;;;;;5043233;28;20083;-40
2023/05/25 08:05:17;;;;;;;11.77;8.07;;;16.80;99.90;;;;;;5039950;28;20433;-38
2023/05/25 08:07:45;;;;;;;16.65;8.10;;;16.80;99.90;;;;;;5019691;28;20105;-40
2023/05/25 08:10:12;;;;;;;15.75;8.45;;;17.00;99.90;;;;;;5021675;28;20034;-44
2023/05/25 08:12:40;;;;;;;14.55;8.15;;;17.10;99.90;;;;;;5041305;28;20041;-41
2023/05/25 08:15:15;;;;;;;11.68;7.90;;;17.10;99.90;;;;;;5059209;28;20049;-40
2023/05/25 08:17:43;;;;;;;16.48;8.80;;;17.30;99.90;;;;;;5032894;28;20037;-39
2023/05/25 08:20:11;;;;;;;13.55;8.07;;;17.40;99.90;;;;;;5051596;28;20045;-41
2023/05/25 08:22:38;;;;;;;13.50;9.40;;;17.50;99.90;;;;;;5042321;28;20041;-44
2023/05/25 08:25:06;;;;;;;16.70;10.18;;;17.50;99.90;;;;;;5045845;28;20158;-40
2023/05/25 08:27:34;;;;;;;13.18;7.82;;;17.60;99.90;;;;;;5048328;28;20056;-39
2023/05/25 08:30:07;;;;;;;15.00;8.90;;;17.60;99.90;;;;;;5052523;28;20044;-42
2023/05/25 08:32:35;;;;;;;13.85;8.07;;;17.60;99.90;;;;;;5048409;28;20679;-41
2023/05/25 08:35:03;;;;;;;15.52;8.68;;;17.70;99.90;;;;;;5051811;28;20037;-43
2023/05/25 08:37:31;;;;;;;19.40;9.32;;;17.70;99.90;;;;;;5050727;28;20061;-41
2023/05/25 08:40:01;;;;;;;12.52;7.93;;;17.80;99.90;;;;;;5051795;28;20079;-40
2023/05/25 08:42:28;;;;;;;15.35;8.55;;;17.90;99.90;;;;;;5042193;28;20395;-41
2023/05/25 08:44:56;;;;;;;16.23;10.73;;;18.00;99.90;;;;;;5051168;28;20163;-39
2023/05/25 08:47:23;;;;;;;17.35;12.30;;;18.00;99.90;;;;;;5043217;28;20045;-41
2023/05/25 08:49:54;;;;;;;14.90;8.60;;;18.00;99.90;;;;;;5043426;28;20051;-40
2023/05/25 08:52:25;;;;;;;15.30;8.60;;;18.10;99.90;;;;;;5043191;28;20056;-39
2023/05/25 08:54:57;;;;;;;11.57;8.00;;;18.20;99.90;;;;;;5026151;28;20045;-41
2023/05/25 08:57:55;;;;;;;13.48;7.80;;;18.40;99.90;;;;;;5038147;28;20114;-41
2023/05/25 09:00:34;;;;;;;17.75;8.63;;;18.40;99.90;;;;;;5016581;28;20077;-42
2023/05/25 09:03:10;;;;;;;10.18;7.85;;;18.50;99.90;;;;;;5033829;28;20442;-40
2023/05/25 09:05:38;;;;;;;15.07;8.38;;;18.60;99.90;;;;;;5047343;28;20049;-40
2023/05/25 09:08:06;;;;;;;11.85;7.60;;;18.70;99.90;;;;;;5043049;28;20048;-41
2023/05/25 09:10:35;;;;;;;11.55;8.10;;;18.80;99.90;;;;;;5063824;28;20037;-41
2023/05/25 09:13:03;;;;;;;13.55;8.15;;;18.90;99.90;;;;;;5065022;28;20040;-45
2023/05/25 09:15:47;;;;;;;11.70;7.93;;;18.90;99.90;;;;;;5040379;28;20100;-41
2023/05/25 09:18:15;;;;;;;15.25;8.15;;;19.10;99.90;;;;;;5045982;28;20045;-41
2023/05/25 09:20:42;;;;;;;16.25;8.25;;;19.20;99.90;;;;;;5040074;28;20038;-41
2023/05/25 09:23:13;;;;;;;14.93;7.95;;;19.20;99.90;;;;;;5032303;28;20045;-39
2023/05/25 09:25:42;;;;;;;12.50;7.75;;;19.40;99.90;;;;;;5032843;28;20134;-40
2023/05/25 09:28:10;;;;;;;15.77;8.57;;;19.50;99.90;;;;;;5050526;28;20045;-41
2023/05/25 09:30:40;;;;;;;15.82;8.40;;;19.60;99.90;;;;;;5058129;28;20064;-41
2023/05/25 09:33:12;;;;;;;17.90;8.70;;;19.70;99.90;;;;;;5066529;28;20060;-42
2023/05/25 09:35:40;;;;;;;10.55;8.07;;;19.80;99.90;;;;;;5050006;28;20045;-41
2023/05/25 09:38:07;;;;;;;14.32;7.88;;;19.90;99.90;;;;;;5042930;28;20077;-39
2023/05/25 09:40:37;;;;;;;13.15;8.48;;;19.90;99.90;;;;;;5048723;28;20051;-39
2023/05/25 09:43:05;;;;;;;13.10;8.48;;;20.00;99.90;;;;;;5027905;28;20057;-39
2023/05/25 09:45:34;;;;;;;14.27;7.63;;;20.20;99.90;;;;;;5028584;28;20045;-38
2023/05/25 09:48:06;;;;;;;12.57;7.85;;;20.40;99.90;;;;;;5040048;28;20045;-43
2023/05/25 09:50:35;;;;;;;12.35;7.70;;;20.60;99.90;;;;;;5041253;28;20518;-43
2023/05/25 09:53:03;;;;;;;12.50;8.75;;;20.80;99.90;;;;;;5041887;28;20079;-40
2023/05/25 09:55:30;;;;;;;11.35;8.05;;;21.00;99.90;;;;;;5039832;28;20053;-39
2023/05/25 09:58:17;;;;;;;13.35;7.93;;;21.00;99.90;;;;;;5040724;28;20099;-40
2023/05/25 10:00:45;;;;;;;14.82;8.70;;;20.90;99.90;;;;;;5048577;28;20045;-40
2023/05/25 10:03:14;;;;;;;14.93;9.43;;;20.90;99.90;;;;;;5035956;28;20053;-42
2023/05/25 10:05:41;;;;;;;13.82;8.55;;;20.90;99.90;;;;;;5048216;28;20045;-40
2023/05/25 10:08:10;;;;;;;13.52;8.55;;;21.10;99.90;;;;;;5044116;28;20038;-45
2023/05/25 10:10:40;;;;;;;12.55;8.07;;;21.20;99.90;;;;;;5057053;28;20049;-40
2023/05/25 10:13:09;;;;;;;17.20;10.40;;;21.20;99.90;;;;;;5018550;28;20045;-40
2023/05/25 10:15:39;;;;;;;13.27;8.95;;;21.30;99.90;;;;;;5051634;28;20041;-45
2023/05/25 10:18:09;;;;;;;11.90;7.68;;;21.50;99.90;;;;;;5058492;28;20040;-41
2023/05/25 10:20:37;;;;;;;9.82;8.18;;;21.70;99.90;;;;;;5051959;28;20088;-41
2023/05/25 10:23:10;;;;;;;11.35;7.75;;;21.90;99.90;;;;;;5036489;28;20056;-42
2023/05/25 10:25:40;;;;;;;14.18;8.63;;;22.00;99.90;;;;;;5040838;28;20103;-42
2023/05/25 10:28:30;;;;;;;10.35;8.38;;;22.10;99.90;;;;;;5036516;28;20422;-41
2023/05/25 10:30:58;;;;;;;12.10;8.15;;;22.30;99.90;;;;;;5044892;28;20041;-43
2023/05/25 10:33:27;;;;;;;13.48;9.00;;;22.40;99.90;;;;;;5049230;28;20038;-39
2023/05/25 10:36:02;;;;;;;14.55;8.43;;;22.60;99.90;;;;;;5067428;28;20033;-43
2023/05/25 10:38:36;;;;;;;11.73;7.80;;;22.70;99.90;;;;;;5058071;28;20149;-43
2023/05/25 10:41:04;;;;;;;15.38;8.30;;;22.50;99.90;;;;;;5058261;28;20048;-44
2023/05/25 10:43:32;;;;;;;13.55;8.95;;;22.50;99.90;;;;;;5052429;28;20555;-42
2023/05/25 10:46:00;;;;;;;12.65;8.23;;;22.60;99.90;;;;;;5048398;28;20434;-43
2023/05/25 10:48:50;;;;;;;11.95;7.80;;;22.70;99.90;;;;;;5058104;28;20489;-43
2023/05/25 10:51:21;;;;;;;10.50;8.20;;;22.90;99.90;;;;;;5056624;28;20041;-45
2023/05/25 10:53:59;;;;;;;13.98;8.10;;;22.90;99.90;;;;;;5039387;28;20045;-42
2023/05/25 10:56:26;;;;;;;11.90;8.82;;;23.20;99.90;;;;;;5042500;28;20097;-40
2023/05/25 10:58:54;;;;;;;13.10;7.97;;;23.60;99.90;;;;;;5039473;28;20102;-44
2023/05/25 11:01:21;;;;;;;14.15;9.77;;;23.60;99.90;;;;;;5047430;28;20080;-42
2023/05/25 11:03:52;;;;;;;20.38;8.75;;;24.00;99.90;;;;;;5038218;28;20074;-45
2023/05/25 11:06:21;;;;;;;10.73;8.18;;;24.20;99.90;;;;;;5043268;28;20130;-40
2023/05/25 11:08:58;;;;;;;12.57;8.45;;;24.50;99.90;;;;;;5036484;28;20076;-40
2023/05/25 11:11:46;;;;;;;12.68;8.15;;;24.30;99.90;;;;;;5029550;28;20046;-45
2023/05/25 11:14:26;;;;;;;13.77;8.23;;;24.70;99.40;;;;;;5043495;28;20114;-41
2023/05/25 11:17:10;;;;;;;10.82;7.80;;;24.90;98.40;;;;;;5033498;28;20044;-43
2023/05/25 11:19:42;;;;;;;11.10;7.53;;;25.40;97.30;;;;;;5042184;28;20045;-42
2023/05/25 11:22:21;;;;;;;11.55;7.82;;;25.30;96.90;;;;;;5053666;28;20037;-44
2023/05/25 11:24:50;;;;;;;15.98;7.60;;;25.50;95.90;;;;;;5042335;28;20056;-44
2023/05/25 11:27:45;;;;;;;10.20;7.43;;;25.70;95.90;;;;;;5046438;28;20094;-43
2023/05/25 11:30:16;;;;;;;9.80;6.90;;;26.00;94.70;;;;;;5041173;28;20118;-43
2023/05/25 11:32:50;;;;;;;10.43;7.32;;;26.00;94.50;;;;;;5048308;28;20045;-43
2023/05/25 11:35:17;;;;;;;11.98;7.18;;;26.60;94.10;;;;;;5050542;28;20043;-43
2023/05/25 11:37:49;;;;;;;11.38;7.35;;;26.60;92.90;;;;;;5022228;28;20040;-43
2023/05/25 11:40:17;;;;;;;10.02;7.30;;;27.00;92.50;;;;;;5040596;28;20045;-43
2023/05/25 11:42:47;;;;;;;8.65;7.75;;;27.10;91.50;;;;;;5043123;28;20098;-45
2023/05/25 11:45:14;;;;;;;11.48;7.53;;;27.00;91.10;;;;;;5042220;28;20050;-42
2023/05/25 11:47:41;;;;;;;9.55;7.43;;;26.90;91.00;;;;;;5034184;28;20119;-44
2023/05/25 11:50:15;;;;;;;12.55;8.23;;;27.10;90.60;;;;;;5042231;28;20561;-43
2023/05/25 11:52:43;;;;;;;13.13;8.45;;;27.00;90.20;;;;;;5046247;28;20059;-42
2023/05/25 11:55:13;;;;;;;11.15;8.00;;;26.70;90.00;;;;;;5058947;28;20491;-43
2023/05/25 11:57:40;;;;;;;13.25;8.15;;;27.30;90.00;;;;;;5045140;28;20047;-42
2023/05/25 12:00:11;;;;;;;12.77;7.90;;;26.90;88.80;;;;;;5059275;28;20136;-42
2023/05/25 12:02:40;;;;;;;13.30;7.38;;;27.10;89.40;;;;;;5051394;28;20049;-40
2023/05/25 12:05:08;;;;;;;11.43;8.13;;;27.70;88.10;;;;;;5042824;28;20055;-43
2023/05/25 12:07:43;;;;;;;10.82;7.82;;;28.10;85.90;;;;;;5043448;28;20393;-44
2023/05/25 12:10:12;;;;;;;12.88;7.78;;;28.20;83.70;;;;;;5038954;28;20061;-41
2023/05/25 12:12:40;;;;;;;11.00;7.95;;;28.30;83.30;;;;;;5043594;28;20151;-44
2023/05/25 12:15:14;;;;;;;9.73;7.75;;;28.30;82.40;;;;;;5037716;28;20080;-45
2023/05/25 12:17:45;;;;;;;11.65;7.82;;;28.90;81.30;;;;;;5042880;28;20095;-42
2023/05/25 12:20:15;;;;;;;10.57;7.78;;;28.70;80.10;;;;;;5037883;28;20403;-40
2023/05/25 12:22:43;;;;;;;13.90;8.57;;;29.00;79.50;;;;;;5048275;28;20047;-43
2023/05/25 12:25:12;;;;;;;10.68;8.13;;;29.40;78.70;;;;;;5037548;28;20059;-43
2023/05/25 12:27:40;;;;;;;12.90;8.52;;;29.40;77.00;;;;;;5044227;28;20041;-43
2023/05/25 12:30:09;;;;;;;10.85;8.32;;;29.90;77.40;;;;;;5049330;28;20037;-44
2023/05/25 12:33:00;;;;;;;13.38;8.10;;;30.70;75.90;;;;;;5041252;28;20033;-43
2023/05/25 12:35:43;;;;;;;13.82;8.77;;;30.60;74.10;;;;;;5033014;28;20076;-45
2023/05/25 12:38:13;;;;;;;11.70;7.95;;;31.10;73.20;;;;;;5039085;28;20049;-44
2023/05/25 12:40:41;;;;;;;9.13;8.23;;;30.80;71.40;;;;;;5035386;28;20103;-40
2023/05/25 12:43:10;;;;;;;9.73;8.20;;;31.40;70.80;;;;;;5050103;28;20056;-41
2023/05/25 12:45:42;;;;;;;9.82;8.20;;;31.60;69.10;;;;;;5048829;28;20398;-43
2023/05/25 12:48:09;;;;;;;12.60;8.57;;;31.70;67.70;;;;;;5052097;28;20041;-40
2023/05/25 12:50:37;;;;;;;9.43;7.63;;;31.40;68.20;;;;;;5042970;28;20159;-45
2023/05/25 12:53:04;;;;;;;13.90;8.88;;;31.50;67.40;;;;;;5050378;28;20041;-43
2023/05/25 12:55:34;;;;;;;13.18;9.65;;;31.60;67.40;;;;;;5045770;28;20127;-43